Time;durP1;ratioP1;P1;durP2;ratioP2;P2;SDS_P1;SDS_P2;PMS_P1;PMS_P2;Temp;Humidity;BMP_temperature;BMP_pressure;BME280_temperature;BME280_humidity;BME280_pressure;Samples;Min_cycle;Max_cycle;Signal;HPM_P1;HPM_P2
2021/08/11 00:00:03;;;;;;;3.00;2.80;;;;;;;16.51;74.56;101209.34;678218;29;1769;-64
2021/08/11 00:00:26;;;;;;;4.15;3.15;;;;;;;16.50;74.36;101212.28;671730;29;115188;-67
2021/08/11 00:00:48;;;;;;;4.45;3.30;;;;;;;16.50;74.40;101212.28;675094;29;12635;-64
2021/08/11 00:01:10;;;;;;;3.40;3.10;;;;;;;16.48;74.43;101208.94;674994;29;23549;-66
2021/08/11 00:01:31;;;;;;;3.38;3.08;;;;;;;16.47;74.09;101210.78;673684;29;47572;-69
2021/08/11 00:01:53;;;;;;;3.42;3.13;;;;;;;16.46;74.17;101208.31;674625;29;19331;-64
2021/08/11 00:02:14;;;;;;;5.10;3.10;;;;;;;16.38;74.35;101204.72;676119;29;913;-64
2021/08/11 00:02:36;;;;;;;4.65;3.10;;;;;;;16.45;74.49;101212.91;677768;29;23518;-63
2021/08/11 00:02:58;;;;;;;3.30;3.00;;;;;;;16.44;74.41;101208.50;677020;29;45354;-65
2021/08/11 00:03:19;;;;;;;4.28;3.33;;;;;;;16.45;74.40;101214.78;676594;29;45603;-65
2021/08/11 00:03:41;;;;;;;3.72;3.33;;;;;;;16.42;74.37;101210.59;677515;29;24431;-66
2021/08/11 00:04:02;;;;;;;3.33;3.10;;;;;;;16.43;74.45;101214.16;676479;29;32758;-64
2021/08/11 00:04:24;;;;;;;3.38;3.08;;;;;;;16.43;74.35;101214.16;677764;29;21324;-65
2021/08/11 00:04:45;;;;;;;3.75;3.30;;;;;;;16.43;74.41;101216.91;677699;29;22428;-64
2021/08/11 00:05:08;;;;;;;3.45;3.17;;;;;;;16.42;74.21;101212.47;677430;29;21556;-66
2021/08/11 00:05:29;;;;;;;3.17;2.97;;;;;;;16.40;74.48;101209.97;678880;29;1785;-67
2021/08/11 00:05:50;;;;;;;2.90;2.70;;;;;;;16.42;74.36;101213.31;677829;29;23517;-64
2021/08/11 00:06:12;;;;;;;3.42;3.13;;;;;;;16.41;74.36;101208.91;677794;29;19383;-64
2021/08/11 00:06:33;;;;;;;4.93;3.15;;;;;;;16.42;74.60;101209.75;676397;29;44428;-64
2021/08/11 00:06:54;;;;;;;4.93;3.17;;;;;;;16.42;74.45;101209.75;677729;29;21574;-64
2021/08/11 00:07:15;;;;;;;4.47;3.03;;;;;;;16.43;74.26;101217.72;677689;29;22434;-65
2021/08/11 00:07:38;;;;;;;4.05;3.33;;;;;;;16.43;74.45;101212.28;676699;29;22441;-66
2021/08/11 00:07:59;;;;;;;3.20;2.90;;;;;;;16.40;74.28;101208.06;676839;29;43125;-64
2021/08/11 00:08:20;;;;;;;3.13;2.83;;;;;;;16.42;74.42;101209.75;677257;29;21686;-65
2021/08/11 00:08:41;;;;;;;3.45;3.15;;;;;;;16.41;74.52;101211.66;677832;29;23905;-63
2021/08/11 00:09:03;;;;;;;3.30;3.00;;;;;;;16.41;74.42;101214.38;678316;29;19388;-64
2021/08/11 00:09:24;;;;;;;3.83;2.65;;;;;;;16.39;74.26;101216.44;676151;29;40503;-64
2021/08/11 00:09:45;;;;;;;3.50;3.03;;;;;;;16.38;74.15;101221.06;677667;29;1836;-66
2021/08/11 00:10:07;;;;;;;3.47;3.17;;;;;;;16.36;74.15;101220.44;678917;29;2921;-65
2021/08/11 00:10:30;;;;;;;3.55;3.10;;;;;;;16.36;74.19;101214.97;678693;29;1186;-68
2021/08/11 00:10:51;;;;;;;4.03;3.00;;;;;;;16.37;74.40;101218.53;677249;29;46392;-64
2021/08/11 00:11:12;;;;;;;3.20;2.65;;;;;;;16.36;74.21;101220.44;678220;29;14705;-64
2021/08/11 00:11:33;;;;;;;3.13;2.83;;;;;;;16.36;74.20;101219.56;677732;29;15929;-66
2021/08/11 00:11:57;;;;;;;3.53;3.00;;;;;;;16.35;74.43;101218.75;677399;29;21975;-65
2021/08/11 00:12:18;;;;;;;4.85;2.90;;;;;;;16.34;74.42;101216.22;675104;29;90547;-63
2021/08/11 00:12:39;;;;;;;3.63;3.10;;;;;;;16.33;74.08;101215.38;677760;29;22386;-64
2021/08/11 00:13:00;;;;;;;3.45;3.15;;;;;;;16.33;74.18;101217.25;677073;29;22384;-63
2021/08/11 00:13:23;;;;;;;3.00;2.80;;;;;;;16.31;74.21;101213.91;678960;29;1505;-64
2021/08/11 00:13:44;;;;;;;3.58;3.28;;;;;;;16.31;74.26;101214.72;677012;29;67438;-64
2021/08/11 00:14:05;;;;;;;3.80;3.03;;;;;;;16.31;74.18;101216.63;677580;29;22400;-67
2021/08/11 00:14:26;;;;;;;3.80;3.00;;;;;;;16.31;74.34;101222.91;675983;29;22195;-65
2021/08/11 00:14:48;;;;;;;3.28;2.97;;;;;;;16.32;74.36;101215.59;676054;29;21557;-64
2021/08/11 00:15:10;;;;;;;4.10;3.05;;;;;;;16.29;74.34;101213.28;675288;29;46377;-65
2021/08/11 00:15:31;;;;;;;2.92;2.63;;;;;;;16.29;74.39;101213.28;675090;29;46341;-65
2021/08/11 00:15:52;;;;;;;3.15;2.95;;;;;;;16.28;74.15;101219.75;676277;29;21520;-64
2021/08/11 00:16:14;;;;;;;5.10;3.30;;;;;;;16.28;74.16;101217.84;676139;29;23494;-65
2021/08/11 00:16:35;;;;;;;4.65;2.90;;;;;;;16.28;74.48;101220.59;676692;29;46357;-66
2021/08/11 00:16:58;;;;;;;3.30;3.00;;;;;;;16.28;74.38;101226.03;678326;29;12227;-65
2021/08/11 00:17:20;;;;;;;3.53;3.20;;;;;;;16.28;74.54;101217.03;676276;29;64366;-65
2021/08/11 00:17:42;;;;;;;3.50;2.78;;;;;;;16.27;74.66;101215.34;677741;29;14750;-64
2021/08/11 00:18:03;;;;;;;3.40;3.08;;;;;;;16.26;74.53;101219.97;677033;29;46425;-64
2021/08/11 00:18:24;;;;;;;3.60;3.30;;;;;;;16.27;74.28;101218.94;676808;29;46373;-65
2021/08/11 00:18:45;;;;;;;3.67;3.22;;;;;;;16.23;74.71;101217.63;677641;29;23466;-66
2021/08/11 00:19:08;;;;;;;3.72;2.80;;;;;;;16.25;74.48;101212.00;678706;29;1762;-67
2021/08/11 00:19:29;;;;;;;3.88;2.80;;;;;;;16.25;74.68;101221.00;677628;29;23704;-66
2021/08/11 00:19:51;;;;;;;4.30;3.00;;;;;;;16.22;74.40;101215.94;677723;29;15527;-64
2021/08/11 00:20:12;;;;;;;3.63;3.25;;;;;;;16.25;74.57;101222.88;677849;29;19272;-65
2021/08/11 00:20:35;;;;;;;3.10;2.90;;;;;;;16.23;74.58;101219.53;677725;29;12743;-64
2021/08/11 00:20:56;;;;;;;4.28;3.20;;;;;;;16.22;74.34;101221.41;673300;29;69462;-64
2021/08/11 00:21:17;;;;;;;4.93;3.25;;;;;;;16.22;74.46;101218.66;675306;29;22394;-65
2021/08/11 00:21:38;;;;;;;3.65;3.05;;;;;;;16.21;74.51;101223.28;674762;29;23551;-64
2021/08/11 00:22:00;;;;;;;3.38;3.03;;;;;;;16.20;74.65;101220.78;674967;29;19020;-64
2021/08/11 00:22:21;;;;;;;3.28;2.97;;;;;;;16.20;74.60;101216.16;675558;29;15542;-64
2021/08/11 00:22:42;;;;;;;2.95;2.75;;;;;;;16.20;74.50;101223.50;675746;29;17375;-63
2021/08/11 00:23:04;;;;;;;3.40;3.10;;;;;;;16.20;74.34;101223.50;677802;29;17992;-65
2021/08/11 00:23:26;;;;;;;3.50;3.10;;;;;;;16.17;74.66;101224.72;674341;29;44514;-63
2021/08/11 00:23:47;;;;;;;4.22;3.05;;;;;;;16.19;74.55;101221.81;674173;29;46475;-63
2021/08/11 00:24:08;;;;;;;4.22;3.15;;;;;;;16.18;74.40;101222.88;675047;29;23564;-65
2021/08/11 00:24:30;;;;;;;3.63;3.33;;;;;;;16.19;74.86;101221.81;675232;29;12262;-65
2021/08/11 00:24:51;;;;;;;3.53;3.22;;;;;;;16.16;74.55;101212.16;673756;29;46522;-64
2021/08/11 00:25:12;;;;;;;3.20;2.97;;;;;;;16.17;74.55;101222.00;675310;29;17659;-65
2021/08/11 00:25:44;;;;;;;3.45;3.15;;;;;;;16.16;74.79;101225.78;675555;29;99063;-64
2021/08/11 00:26:05;;;;;;;3.35;2.95;;;;;;;16.17;74.74;101226.63;677008;29;44822;-64
2021/08/11 00:26:26;;;;;;;3.60;3.08;;;;;;;16.14;74.84;101230.59;676370;29;22516;-69
2021/08/11 00:26:47;;;;;;;3.17;2.88;;;;;;;16.16;74.57;101222.19;677556;29;23495;-63
2021/08/11 00:27:09;;;;;;;4.75;3.08;;;;;;;16.15;74.64;101229.53;678567;29;1007;-64
2021/08/11 00:27:31;;;;;;;3.42;3.15;;;;;;;16.15;74.64;101226.00;678264;29;911;-64
2021/08/11 00:27:52;;;;;;;3.35;3.00;;;;;;;16.15;74.92;101218.66;673840;29;22121;-64
2021/08/11 00:28:13;;;;;;;3.60;3.08;;;;;;;16.15;74.70;101223.28;675205;29;10499;-66
2021/08/11 00:28:34;;;;;;;3.92;3.20;;;;;;;16.16;74.72;101224.94;674433;29;13480;-64
2021/08/11 00:28:56;;;;;;;4.63;3.00;;;;;;;16.14;74.78;101222.41;671597;29;39531;-67
2021/08/11 00:29:18;;;;;;;3.70;3.00;;;;;;;16.14;74.75;101227.03;672172;29;40506;-67
2021/08/11 00:29:39;;;;;;;3.55;3.03;;;;;;;16.15;74.92;101229.53;671454;29;46867;-63
2021/08/11 00:30:01;;;;;;;4.05;2.88;;;;;;;16.16;74.97;101224.94;672285;29;17440;-65
2021/08/11 00:30:23;;;;;;;6.25;3.28;;;;;;;16.18;74.93;101225.59;671297;29;46283;-65
2021/08/11 00:30:44;;;;;;;3.83;3.03;;;;;;;16.17;75.02;101227.44;669432;29;40314;-65
2021/08/11 00:31:05;;;;;;;3.50;3.00;;;;;;;16.17;74.94;101226.63;671005;29;21541;-64
2021/08/11 00:31:27;;;;;;;4.00;3.25;;;;;;;16.19;74.94;101225.38;671705;29;17734;-65
2021/08/11 00:31:49;;;;;;;6.63;3.30;;;;;;;16.18;74.96;101223.69;672260;29;44643;-64
2021/08/11 00:32:12;;;;;;;3.22;2.90;;;;;;;16.21;74.88;101226.00;670721;29;60387;-64
2021/08/11 00:32:34;;;;;;;3.65;3.03;;;;;;;16.19;74.88;101219.94;672405;29;46716;-64
2021/08/11 00:32:55;;;;;;;5.00;3.20;;;;;;;16.23;75.05;101222.25;673408;29;22421;-65
2021/08/11 00:33:17;;;;;;;4.15;3.15;;;;;;;16.23;75.04;101228.53;673152;29;23494;-66
2021/08/11 00:33:38;;;;;;;4.55;3.22;;;;;;;16.24;74.89;101222.06;671975;29;69426;-65
2021/08/11 00:33:59;;;;;;;3.92;3.10;;;;;;;16.25;74.81;101226.44;673928;29;23450;-63
2021/08/11 00:34:20;;;;;;;5.20;3.25;;;;;;;16.26;74.85;101224.59;673997;29;23477;-64
2021/08/11 00:34:42;;;;;;;3.50;3.20;;;;;;;16.27;74.79;101232.56;672228;29;22381;-64
2021/08/11 00:35:05;;;;;;;4.63;3.20;;;;;;;16.28;74.89;101222.47;669777;29;46296;-63
2021/08/11 00:35:26;;;;;;;3.45;2.88;;;;;;;16.30;74.94;101229.41;669301;29;69201;-66
2021/08/11 00:35:47;;;;;;;3.58;3.28;;;;;;;16.28;74.89;101230.66;673525;29;23465;-64
2021/08/11 00:36:09;;;;;;;3.85;3.30;;;;;;;16.30;74.89;101232.16;671251;29;18733;-64
2021/08/11 00:36:32;;;;;;;3.38;3.08;;;;;;;16.31;74.58;101224.81;670579;29;51522;-67
2021/08/11 00:36:54;;;;;;;3.63;3.30;;;;;;;16.34;74.88;101232.56;673520;29;45260;-65
2021/08/11 00:37:15;;;;;;;4.30;3.50;;;;;;;16.34;74.75;101227.94;674768;29;4844;-64
2021/08/11 00:37:41;;;;;;;4.43;3.10;;;;;;;16.36;74.81;101225.03;667032;29;137518;-66
2021/08/11 00:38:04;;;;;;;3.33;3.03;;;;;;;16.38;74.82;101229.25;671465;29;67516;-64
2021/08/11 00:38:25;;;;;;;3.38;3.10;;;;;;;16.39;74.77;101227.34;674554;29;22507;-64
2021/08/11 00:38:53;;;;;;;4.07;3.25;;;;;;;16.40;74.61;101226.31;668388;29;157477;-64
2021/08/11 00:39:16;;;;;;;3.55;2.83;;;;;;;16.40;74.62;101232.59;671053;29;1643;-65
2021/08/11 00:39:39;;;;;;;3.90;2.88;;;;;;;16.43;74.65;101235.97;671427;29;44381;-65
2021/08/11 00:40:03;;;;;;;3.20;2.92;;;;;;;16.44;74.63;101237.63;668564;29;105401;-65
2021/08/11 00:40:27;;;;;;;4.22;3.00;;;;;;;16.44;74.48;101234.91;669527;29;27878;-65
2021/08/11 00:40:50;;;;;;;3.10;2.90;;;;;;;16.46;74.56;101232.84;671154;29;37267;-65
2021/08/11 00:41:17;;;;;;;3.30;3.00;;;;;;;16.44;74.46;101233.03;670973;29;61639;-65
2021/08/11 00:41:44;;;;;;;3.28;3.08;;;;;;;16.46;74.30;101236.41;670737;29;22079;-65
2021/08/11 00:42:07;;;;;;;4.10;3.28;;;;;;;16.46;74.51;101238.28;669660;29;60554;-65
2021/08/11 00:42:28;;;;;;;4.70;3.20;;;;;;;16.49;74.44;101237.84;672294;29;23751;-68
2021/08/11 00:42:50;;;;;;;3.38;3.08;;;;;;;16.50;74.23;101240.38;667281;29;45336;-66
2021/08/11 00:43:13;;;;;;;3.78;3.30;;;;;;;16.49;74.06;101238.72;668976;29;46882;-65
2021/08/11 00:43:39;;;;;;;3.38;3.15;;;;;;;16.52;74.34;101241.03;665012;29;135516;-65
2021/08/11 00:44:03;;;;;;;3.60;3.30;;;;;;;16.53;74.16;101236.41;668938;29;68044;-64
2021/08/11 00:44:25;;;;;;;3.92;3.50;;;;;;;16.54;74.11;101243.56;669795;29;37399;-65
2021/08/11 00:44:47;;;;;;;5.65;3.35;;;;;;;16.55;74.23;101239.78;672493;29;30445;-68
2021/08/11 00:45:10;;;;;;;4.75;3.08;;;;;;;16.55;74.23;101237.03;670285;29;70308;-66
2021/08/11 00:45:32;;;;;;;3.47;3.10;;;;;;;16.56;74.13;101239.56;671141;29;42395;-65
2021/08/11 00:45:54;;;;;;;3.50;3.20;;;;;;;16.55;74.04;101229.72;670437;29;20470;-66
2021/08/11 00:46:15;;;;;;;3.30;3.00;;;;;;;16.56;73.85;101239.56;669580;29;45431;-65
2021/08/11 00:46:39;;;;;;;4.15;3.30;;;;;;;16.56;74.00;101239.56;669515;29;22493;-66
2021/08/11 00:47:03;;;;;;;6.75;3.13;;;;;;;16.58;73.89;101234.78;668762;29;92291;-67
2021/08/11 00:47:29;;;;;;;5.22;3.17;;;;;;;16.59;73.94;101241.06;668327;29;113601;-65
2021/08/11 00:47:51;;;;;;;3.63;3.28;;;;;;;16.58;73.68;101242.94;671781;29;138163;-65
2021/08/11 00:48:13;;;;;;;3.10;2.90;;;;;;;16.60;73.53;101241.88;676045;29;45123;-65
2021/08/11 00:48:37;;;;;;;3.30;3.00;;;;;;;16.58;73.70;101237.50;675956;29;23048;-67
2021/08/11 00:48:58;;;;;;;3.88;3.30;;;;;;;16.60;73.76;101240.03;667453;29;95182;-65
2021/08/11 00:49:21;;;;;;;3.72;3.28;;;;;;;16.60;73.64;101244.63;666265;29;60547;-64
2021/08/11 00:49:44;;;;;;;5.00;3.10;;;;;;;16.60;73.65;101242.75;666621;29;57444;-66
2021/08/11 00:50:09;;;;;;;4.38;3.10;;;;;;;16.56;73.53;101238.75;665113;29;59678;-65
2021/08/11 00:50:31;;;;;;;3.80;3.33;;;;;;;16.60;73.57;101236.44;666418;29;55059;-65
2021/08/11 00:50:53;;;;;;;4.13;3.22;;;;;;;16.51;73.47;101228.44;667424;29;67464;-64
2021/08/11 00:51:16;;;;;;;3.53;3.20;;;;;;;16.57;73.44;101251.34;671101;29;34659;-65
2021/08/11 00:51:38;;;;;;;3.35;3.05;;;;;;;16.56;73.58;101238.75;667167;29;44405;-65
2021/08/11 00:51:59;;;;;;;3.25;2.97;;;;;;;16.56;73.50;101239.56;669356;29;28618;-64
2021/08/11 00:52:21;;;;;;;4.82;3.35;;;;;;;16.55;73.28;101242.50;667464;29;46342;-64
2021/08/11 00:52:47;;;;;;;6.82;3.40;;;;;;;16.55;73.38;101246.09;667325;29;81481;-65
2021/08/11 00:53:13;;;;;;;4.03;3.10;;;;;;;16.52;73.35;101243.78;666602;29;92244;-65
2021/08/11 00:53:36;;;;;;;5.85;3.13;;;;;;;16.51;73.08;101239.34;667111;29;115929;-66
2021/08/11 00:53:59;;;;;;;3.40;3.10;;;;;;;16.50;73.33;101248.56;668422;29;37865;-64
2021/08/11 00:54:22;;;;;;;3.70;3.40;;;;;;;16.50;73.55;101239.56;666825;29;41817;-65
2021/08/11 00:54:44;;;;;;;3.58;3.28;;;;;;;16.49;73.45;101246.91;669321;29;110050;-64
2021/08/11 00:55:08;;;;;;;3.83;3.50;;;;;;;16.48;73.38;101244.38;669258;29;38529;-65
2021/08/11 00:55:33;;;;;;;4.03;3.40;;;;;;;16.48;73.54;101247.09;664037;29;56291;-63
2021/08/11 00:55:56;;;;;;;3.60;3.00;;;;;;;16.48;73.47;101239.75;662984;29;111914;-63
2021/08/11 00:56:18;;;;;;;4.50;3.28;;;;;;;16.47;73.43;101235.34;664778;29;89891;-63
2021/08/11 00:56:42;;;;;;;4.00;3.15;;;;;;;16.47;73.45;101240.78;668610;29;46958;-64
2021/08/11 00:57:04;;;;;;;3.50;3.20;;;;;;;16.47;73.73;101243.50;670893;29;92251;-65
2021/08/11 00:57:27;;;;;;;3.55;3.25;;;;;;;16.47;73.66;101240.78;671238;29;46391;-68
2021/08/11 00:57:50;;;;;;;3.58;3.28;;;;;;;16.47;73.68;101243.50;670111;29;69416;-65
2021/08/11 00:58:14;;;;;;;3.58;3.28;;;;;;;16.46;73.76;101243.75;666093;29;136503;-65
2021/08/11 00:58:39;;;;;;;3.80;3.50;;;;;;;16.47;73.68;101243.50;667749;29;90763;-66
2021/08/11 00:59:05;;;;;;;3.38;3.15;;;;;;;16.46;73.63;101239.13;669173;29;61618;-66
2021/08/11 00:59:37;;;;;;;6.60;3.33;;;;;;;16.47;73.55;101238.06;672365;29;59919;-64
2021/08/11 01:00:00;;;;;;;3.97;3.22;;;;;;;16.48;73.64;101247.94;672615;29;87052;-65
2021/08/11 01:00:22;;;;;;;3.95;3.30;;;;;;;16.48;73.61;101245.22;672751;29;18648;-66
2021/08/11 01:00:45;;;;;;;3.75;3.45;;;;;;;16.47;73.58;101246.25;670951;29;1706;-64
2021/08/11 01:01:07;;;;;;;4.10;3.70;;;;;;;16.46;73.63;101241.84;668247;29;1003;-65
2021/08/11 01:01:34;;;;;;;3.72;3.42;;;;;;;16.45;73.51;101242.06;665200;29;84625;-66
2021/08/11 01:01:57;;;;;;;4.40;3.58;;;;;;;16.44;73.62;101241.22;667475;29;79844;-65
2021/08/11 01:02:19;;;;;;;3.97;3.30;;;;;;;16.45;73.26;101247.50;670109;29;45249;-65
2021/08/11 01:02:45;;;;;;;3.60;3.30;;;;;;;16.43;73.73;101245.00;670737;29;99670;-64
2021/08/11 01:03:12;;;;;;;5.38;3.35;;;;;;;16.42;73.83;101240.56;670516;29;130550;-65
2021/08/11 01:03:34;;;;;;;4.60;3.63;;;;;;;16.44;73.88;101246.69;672937;29;105423;-65
2021/08/11 01:03:57;;;;;;;4.03;3.63;;;;;;;16.44;73.70;101246.69;674450;29;46268;-65
2021/08/11 01:04:21;;;;;;;4.10;3.50;;;;;;;16.44;73.62;101245.81;672780;29;91401;-65
2021/08/11 01:04:46;;;;;;;4.03;3.70;;;;;;;16.44;73.61;101246.69;673811;29;59207;-66
2021/08/11 01:05:08;;;;;;;3.45;3.15;;;;;;;16.44;73.52;101246.69;671004;29;20856;-64
2021/08/11 01:05:32;;;;;;;5.50;3.20;;;;;;;16.42;73.81;101245.19;671994;29;1333;-65
2021/08/11 01:05:56;;;;;;;3.78;3.47;;;;;;;16.43;73.76;101246.88;666124;29;62736;-64
2021/08/11 01:06:18;;;;;;;3.72;3.42;;;;;;;16.43;73.83;101246.88;666625;29;114947;-65
2021/08/11 01:06:40;;;;;;;4.25;3.58;;;;;;;16.44;73.73;101245.81;665453;29;19352;-65
2021/08/11 01:07:04;;;;;;;5.53;3.90;;;;;;;16.44;73.84;101243.09;665473;29;50073;-65
2021/08/11 01:07:29;;;;;;;5.20;3.42;;;;;;;16.43;73.72;101247.72;665895;29;61666;-64
2021/08/11 01:07:52;;;;;;;4.50;3.35;;;;;;;16.44;73.71;101254.00;667896;29;65152;-65
2021/08/11 01:08:14;;;;;;;4.28;3.53;;;;;;;16.43;73.63;101253.16;669746;29;18998;-65
2021/08/11 01:08:37;;;;;;;5.10;3.50;;;;;;;16.43;73.61;101249.59;671992;29;42358;-64
2021/08/11 01:08:58;;;;;;;4.07;3.55;;;;;;;16.41;73.65;101244.34;669429;29;67520;-66
2021/08/11 01:09:20;;;;;;;3.70;3.35;;;;;;;16.44;73.66;101251.28;669330;29;32549;-65
2021/08/11 01:09:49;;;;;;;4.30;3.83;;;;;;;16.45;73.93;101250.25;664745;29;135238;-65
2021/08/11 01:10:12;;;;;;;4.10;3.70;;;;;;;16.44;73.83;101251.28;666503;29;92301;-65
2021/08/11 01:10:38;;;;;;;3.70;3.40;;;;;;;16.43;73.63;101250.44;666217;29;60725;-65
2021/08/11 01:10:59;;;;;;;3.83;3.33;;;;;;;16.43;73.55;101253.16;668023;29;7408;-65
2021/08/11 01:11:22;;;;;;;4.13;3.55;;;;;;;16.42;73.63;101248.75;669076;29;46333;-65
2021/08/11 01:11:45;;;;;;;3.45;3.15;;;;;;;16.41;73.41;101258.00;667618;29;69141;-65
2021/08/11 01:12:08;;;;;;;3.70;3.40;;;;;;;16.39;73.57;101252.75;664729;29;93655;-65
2021/08/11 01:12:29;;;;;;;3.90;3.60;;;;;;;16.40;73.60;101248.13;668204;29;23517;-65
2021/08/11 01:12:51;;;;;;;4.00;3.65;;;;;;;16.39;73.59;101254.59;669178;29;18529;-65
2021/08/11 01:13:13;;;;;;;4.95;3.75;;;;;;;16.36;73.72;101246.84;666741;29;1146;-65
2021/08/11 01:13:35;;;;;;;4.55;3.70;;;;;;;16.36;73.46;101252.28;667940;29;41562;-65
2021/08/11 01:13:57;;;;;;;6.50;3.80;;;;;;;16.35;73.80;101254.19;667298;29;46333;-65
2021/08/11 01:14:20;;;;;;;6.05;3.78;;;;;;;16.35;73.49;101256.91;669255;29;46441;-65
2021/08/11 01:14:41;;;;;;;5.93;3.78;;;;;;;16.33;73.68;101256.28;668703;29;1301;-65
2021/08/11 01:15:11;;;;;;;4.30;3.90;;;;;;;16.32;73.85;101254.59;666777;29;59205;-66
2021/08/11 01:15:33;;;;;;;4.68;3.90;;;;;;;16.29;73.53;101255.00;670554;29;21419;-65
2021/08/11 01:15:54;;;;;;;5.95;3.70;;;;;;;16.30;73.58;101250.38;670637;29;67469;-66
2021/08/11 01:16:21;;;;;;;4.13;3.72;;;;;;;16.29;73.58;101256.88;669120;29;113595;-65
2021/08/11 01:16:43;;;;;;;4.20;3.90;;;;;;;16.28;73.64;101257.91;671497;29;69423;-66
2021/08/11 01:17:05;;;;;;;3.90;3.60;;;;;;;16.28;73.68;101257.91;670143;29;45266;-64
2021/08/11 01:17:27;;;;;;;5.28;4.03;;;;;;;16.28;73.84;101257.91;668645;29;21685;-65
2021/08/11 01:17:50;;;;;;;4.97;4.20;;;;;;;16.25;73.96;101250.13;667679;29;44255;-64
2021/08/11 01:18:13;;;;;;;5.22;3.90;;;;;;;16.26;73.77;101249.09;668035;29;69724;-65
2021/08/11 01:18:35;;;;;;;5.63;4.15;;;;;;;16.26;73.78;101257.28;667841;29;93158;-65
2021/08/11 01:18:57;;;;;;;4.72;4.20;;;;;;;16.24;73.75;101256.63;670798;29;45245;-64
2021/08/11 01:19:20;;;;;;;5.65;4.10;;;;;;;16.23;73.81;101250.34;673146;29;33458;-65
2021/08/11 01:19:43;;;;;;;5.63;3.88;;;;;;;16.21;73.88;101253.28;668665;29;84175;-65
2021/08/11 01:20:05;;;;;;;4.22;3.88;;;;;;;16.19;73.74;101257.22;670220;29;23270;-65
2021/08/11 01:20:27;;;;;;;7.75;4.55;;;;;;;16.20;74.03;101257.03;669786;29;63304;-65
2021/08/11 01:20:58;;;;;;;4.95;4.28;;;;;;;16.19;73.96;101249.06;671305;29;46304;-65
2021/08/11 01:21:25;;;;;;;5.75;4.10;;;;;;;16.19;73.96;101251.78;668750;29;137169;-65
2021/08/11 01:21:52;;;;;;;4.75;4.25;;;;;;;16.18;74.00;101253.66;671842;29;138010;-66
2021/08/11 01:22:20;;;;;;;5.10;4.60;;;;;;;16.18;74.01;101253.66;669953;29;138783;-65
2021/08/11 01:22:42;;;;;;;4.75;4.35;;;;;;;16.16;74.16;101250.31;667329;29;138177;-65
2021/08/11 01:23:08;;;;;;;7.15;4.65;;;;;;;16.16;74.26;101261.22;668433;29;92482;-65
2021/08/11 01:23:35;;;;;;;5.55;4.88;;;;;;;16.15;74.03;101256.81;665602;29;90745;-65
2021/08/11 01:24:01;;;;;;;5.30;4.72;;;;;;;16.17;74.22;101260.16;667340;29;138045;-65
2021/08/11 01:24:28;;;;;;;6.20;4.68;;;;;;;16.14;74.27;101252.38;666271;29;138058;-65
2021/08/11 01:24:53;;;;;;;5.00;4.50;;;;;;;16.15;74.53;101253.25;666459;29;125579;-65
2021/08/11 01:25:20;;;;;;;6.55;4.97;;;;;;;16.14;74.25;101260.56;665907;29;136328;-65
2021/08/11 01:25:43;;;;;;;6.82;5.10;;;;;;;16.14;74.27;101257.81;666669;29;136362;-65
2021/08/11 01:26:11;;;;;;;6.15;5.28;;;;;;;16.14;74.28;101259.72;670464;29;14880;-66
2021/08/11 01:26:42;;;;;;;6.60;4.90;;;;;;;16.14;74.36;101257.81;667300;29;160937;-64
2021/08/11 01:27:32;;;;;;;6.03;5.43;;;;;;;16.13;74.27;101256.16;668935;29;103968;-65
2021/08/11 01:28:20;;;;;;;5.97;5.38;;;;;;;16.10;74.40;101264.75;660100;29;137820;-65
2021/08/11 01:28:52;;;;;;;6.22;5.60;;;;;;;16.08;74.26;101255.94;662979;29;135240;-64
2021/08/11 01:29:17;;;;;;;6.93;5.70;;;;;;;16.10;74.67;101262.03;672406;29;137430;-64
2021/08/11 01:29:51;;;;;;;6.95;5.57;;;;;;;16.09;74.61;101254.88;675337;29;39461;-65
2021/08/11 01:30:17;;;;;;;7.53;6.10;;;;;;;16.09;74.87;101257.59;671908;29;137168;-65
2021/08/11 01:30:53;;;;;;;6.10;5.50;;;;;;;16.09;74.87;101257.59;670946;29;99673;-65
2021/08/11 01:31:35;;;;;;;7.35;5.80;;;;;;;16.05;75.07;101256.34;674552;29;62247;-65
2021/08/11 01:32:02;;;;;;;6.45;5.65;;;;;;;16.10;74.95;101255.75;672491;29;137587;-65
2021/08/11 01:32:34;;;;;;;6.97;5.85;;;;;;;16.10;75.20;101255.75;672809;29;124681;-64
2021/08/11 01:33:22;;;;;;;6.43;5.82;;;;;;;16.14;75.09;101265.19;672074;29;135881;-65
2021/08/11 01:33:48;;;;;;;8.25;6.60;;;;;;;16.13;75.17;101261.63;666480;29;151710;-65
2021/08/11 01:34:19;;;;;;;7.38;5.97;;;;;;;16.14;75.25;101257.81;668646;29;136264;-65
2021/08/11 01:34:42;;;;;;;7.65;6.38;;;;;;;16.12;75.23;101253.66;666863;29;110883;-65
2021/08/11 01:35:06;;;;;;;8.52;6.53;;;;;;;16.14;75.28;101257.81;664144;29;113176;-64
2021/08/11 01:35:31;;;;;;;7.15;5.93;;;;;;;16.15;75.27;101259.53;666349;29;63706;-63
2021/08/11 01:35:59;;;;;;;6.65;5.95;;;;;;;16.14;75.19;101254.28;666812;29;111218;-65
2021/08/11 01:36:28;;;;;;;8.45;6.43;;;;;;;16.16;75.31;101263.06;669001;29;138543;-65
2021/08/11 01:36:52;;;;;;;8.13;5.90;;;;;;;16.15;75.10;101256.81;666034;29;132368;-64
2021/08/11 01:37:22;;;;;;;7.10;5.63;;;;;;;16.15;75.27;101255.97;666772;29;121541;-65
2021/08/11 01:37:44;;;;;;;7.63;6.18;;;;;;;16.16;75.10;101258.50;669049;29;133204;-65
2021/08/11 01:38:10;;;;;;;7.33;6.10;;;;;;;16.15;75.10;101262.25;675692;29;69495;-65
2021/08/11 01:38:34;;;;;;;6.55;5.90;;;;;;;16.16;75.33;101257.63;672446;29;93502;-65
2021/08/11 01:39:00;;;;;;;6.93;6.07;;;;;;;16.17;75.28;101262.88;672055;29;114989;-65
2021/08/11 01:39:28;;;;;;;6.55;5.90;;;;;;;16.16;75.28;101253.03;671898;29;115165;-65
2021/08/11 01:39:53;;;;;;;7.68;6.10;;;;;;;16.15;75.29;101255.97;674099;29;59050;-64
2021/08/11 01:40:28;;;;;;;6.78;6.07;;;;;;;16.15;75.38;101254.06;670271;29;141271;-65
2021/08/11 01:40:54;;;;;;;7.00;6.10;;;;;;;16.17;75.37;101253.88;672461;29;128186;-64
2021/08/11 01:41:18;;;;;;;7.28;5.97;;;;;;;16.19;75.44;101259.94;673691;29;136201;-65
2021/08/11 01:41:46;;;;;;;6.53;5.60;;;;;;;16.20;75.27;101258.91;673609;29;69511;-65
2021/08/11 01:42:11;;;;;;;6.82;6.13;;;;;;;16.20;75.23;101258.91;671041;29;130527;-65
2021/08/11 01:42:36;;;;;;;6.55;5.93;;;;;;;16.21;75.41;101261.44;671065;29;135204;-65
2021/08/11 01:43:00;;;;;;;6.60;5.95;;;;;;;16.23;75.22;101263.13;672622;29;90368;-65
2021/08/11 01:43:24;;;;;;;8.13;6.13;;;;;;;16.24;75.23;101262.06;669709;29;90336;-64
2021/08/11 01:43:46;;;;;;;7.78;6.20;;;;;;;16.24;75.22;101262.94;669886;29;92328;-65
2021/08/11 01:44:07;;;;;;;7.65;6.25;;;;;;;16.25;75.37;101263.78;673211;29;45187;-65
2021/08/11 01:44:37;;;;;;;8.82;6.32;;;;;;;16.27;75.42;101267.13;673280;29;63154;-66
2021/08/11 01:45:08;;;;;;;8.07;6.60;;;;;;;16.26;75.16;101268.19;669538;29;107044;-65
2021/08/11 01:45:34;;;;;;;8.68;6.55;;;;;;;16.27;75.40;101267.13;669465;29;112608;-66
2021/08/11 01:45:56;;;;;;;7.00;6.10;;;;;;;16.26;75.37;101266.28;672118;29;93379;-66
2021/08/11 01:46:19;;;;;;;8.18;5.93;;;;;;;16.26;75.37;101262.72;672828;29;972;-65
2021/08/11 01:46:43;;;;;;;6.47;5.88;;;;;;;16.26;75.01;101266.28;669485;29;115493;-65
2021/08/11 01:47:07;;;;;;;8.95;5.85;;;;;;;16.26;75.29;101265.47;670710;29;45349;-64
2021/08/11 01:47:33;;;;;;;6.95;6.25;;;;;;;16.25;75.12;101258.31;669515;29;92662;-64
2021/08/11 01:47:57;;;;;;;6.53;5.85;;;;;;;16.25;75.20;101261.88;667496;29;143015;-65
2021/08/11 01:48:26;;;;;;;7.43;6.18;;;;;;;16.24;75.20;101262.94;671291;29;60968;-65
2021/08/11 01:48:48;;;;;;;7.30;6.03;;;;;;;16.24;75.17;101259.34;673181;29;114530;-65
2021/08/11 01:49:12;;;;;;;6.60;6.00;;;;;;;16.20;75.23;101257.03;676179;29;14244;-65
2021/08/11 01:49:34;;;;;;;6.57;5.80;;;;;;;16.24;75.14;101260.22;675882;29;69817;-65
2021/08/11 01:49:57;;;;;;;7.10;5.85;;;;;;;16.23;75.22;101260.41;676784;29;39075;-65
2021/08/11 01:50:21;;;;;;;6.78;5.80;;;;;;;16.24;74.90;101262.94;674108;29;69501;-65
2021/08/11 01:50:45;;;;;;;6.75;6.13;;;;;;;16.24;75.01;101262.06;674185;29;67495;-65
2021/08/11 01:51:12;;;;;;;7.30;6.45;;;;;;;16.21;75.03;101264.16;672250;29;137728;-65